sensor_id;sensor_type;location;lat;lon;timestamp;pressure;altitude;pressure_sealevel;temperature
30001;BMP280;16845;48.670;9.000;2024-02-23T00:00:27;93594.38;;;6.96
30001;BMP280;16845;48.670;9.000;2024-02-23T00:02:55;93591.75;;;6.81
30001;BMP280;16845;48.670;9.000;2024-02-23T00:05:21;93599.84;;;7.04
30001;BMP280;16845;48.670;9.000;2024-02-23T00:07:48;93589.22;;;6.82
30001;BMP280;16845;48.670;9.000;2024-02-23T00:10:15;93591.94;;;7.30
30001;BMP280;16845;48.670;9.000;2024-02-23T00:12:41;93599.63;;;7.08
30001;BMP280;16845;48.670;9.000;2024-02-23T00:15:08;93606.81;;;7.14
30001;BMP280;16845;48.670;9.000;2024-02-23T00:17:35;93611.97;;;7.11
30001;BMP280;16845;48.670;9.000;2024-02-23T00:20:03;93601.13;;;7.29
30001;BMP280;16845;48.670;9.000;2024-02-23T00:22:32;93628.97;;;7.39
30001;BMP280;16845;48.670;9.000;2024-02-23T00:24:59;93633.06;;;7.40
30001;BMP280;16845;48.670;9.000;2024-02-23T00:27:25;93637.25;;;7.04
30001;BMP280;16845;48.670;9.000;2024-02-23T00:29:52;93644.81;;;7.21
30001;BMP280;16845;48.670;9.000;2024-02-23T00:32:18;93639.31;;;7.31
30001;BMP280;16845;48.670;9.000;2024-02-23T00:34:45;93635.31;;;7.46
30001;BMP280;16845;48.670;9.000;2024-02-23T00:37:13;93639.25;;;7.33
30001;BMP280;16845;48.670;9.000;2024-02-23T00:39:39;93639.63;;;7.59
30001;BMP280;16845;48.670;9.000;2024-02-23T00:42:06;93636.84;;;7.82
30001;BMP280;16845;48.670;9.000;2024-02-23T00:44:33;93636.13;;;7.63
30001;BMP280;16845;48.670;9.000;2024-02-23T00:47:00;93629.06;;;7.19
30001;BMP280;16845;48.670;9.000;2024-02-23T00:49:26;93636.31;;;7.42
30001;BMP280;16845;48.670;9.000;2024-02-23T00:51:53;93630.38;;;7.44
30001;BMP280;16845;48.670;9.000;2024-02-23T00:54:21;93647.47;;;7.52
30001;BMP280;16845;48.670;9.000;2024-02-23T00:56:47;93648.41;;;7.32
30001;BMP280;16845;48.670;9.000;2024-02-23T00:59:18;93651.31;;;7.23
30001;BMP280;16845;48.670;9.000;2024-02-23T01:01:45;93644.75;;;7.39
30001;BMP280;16845;48.670;9.000;2024-02-23T01:04:11;93650.69;;;7.72
30001;BMP280;16845;48.670;9.000;2024-02-23T01:06:38;93670.59;;;7.38
30001;BMP280;16845;48.670;9.000;2024-02-23T01:09:04;93664.44;;;7.10
30001;BMP280;16845;48.670;9.000;2024-02-23T01:11:32;93660.53;;;7.04
30001;BMP280;16845;48.670;9.000;2024-02-23T01:13:59;93638.38;;;7.51
30001;BMP280;16845;48.670;9.000;2024-02-23T01:16:25;93636.25;;;7.43
30001;BMP280;16845;48.670;9.000;2024-02-23T01:18:52;93624.34;;;7.31
30001;BMP280;16845;48.670;9.000;2024-02-23T01:21:19;93639.25;;;7.50
30001;BMP280;16845;48.670;9.000;2024-02-23T01:23:45;93640.00;;;7.52
30001;BMP280;16845;48.670;9.000;2024-02-23T01:26:12;93639.25;;;7.50
30001;BMP280;16845;48.670;9.000;2024-02-23T01:28:39;93655.19;;;7.47
30001;BMP280;16845;48.670;9.000;2024-02-23T01:31:08;93648.03;;;7.23
30001;BMP280;16845;48.670;9.000;2024-02-23T01:33:34;93655.94;;;7.14
30001;BMP280;16845;48.670;9.000;2024-02-23T01:36:01;93655.00;;;7.33
30001;BMP280;16845;48.670;9.000;2024-02-23T01:38:28;93655.31;;;7.44
30001;BMP280;16845;48.670;9.000;2024-02-23T01:40:54;93659.00;;;7.19
30001;BMP280;16845;48.670;9.000;2024-02-23T01:43:21;93658.25;;;7.00
30001;BMP280;16845;48.670;9.000;2024-02-23T01:45:49;93655.47;;;7.41
30001;BMP280;16845;48.670;9.000;2024-02-23T01:48:16;93667.31;;;7.19
30001;BMP280;16845;48.670;9.000;2024-02-23T01:50:43;93661.50;;;7.19
30001;BMP280;16845;48.670;9.000;2024-02-23T01:53:10;93651.06;;;7.29
30001;BMP280;16845;48.670;9.000;2024-02-23T01:55:40;93658.44;;;7.31
30001;BMP280;16845;48.670;9.000;2024-02-23T01:58:07;93660.84;;;7.15
30001;BMP280;16845;48.670;9.000;2024-02-23T02:00:34;93659.75;;;7.39
30001;BMP280;16845;48.670;9.000;2024-02-23T02:03:02;93660.63;;;7.38
30001;BMP280;16845;48.670;9.000;2024-02-23T02:05:29;93659.44;;;7.45
30001;BMP280;16845;48.670;9.000;2024-02-23T02:07:56;93675.69;;;7.18
30001;BMP280;16845;48.670;9.000;2024-02-23T02:10:22;93681.25;;;7.23
30001;BMP280;16845;48.670;9.000;2024-02-23T02:12:49;93686.09;;;7.26
30001;BMP280;16845;48.670;9.000;2024-02-23T02:15:15;93690.44;;;7.23
30001;BMP280;16845;48.670;9.000;2024-02-23T02:17:42;93684.16;;;7.33
30001;BMP280;16845;48.670;9.000;2024-02-23T02:20:12;93676.38;;;7.39
30001;BMP280;16845;48.670;9.000;2024-02-23T02:22:39;93674.41;;;7.45
30001;BMP280;16845;48.670;9.000;2024-02-23T02:25:06;93682.59;;;7.66
30001;BMP280;16845;48.670;9.000;2024-02-23T02:27:33;93690.19;;;7.10
30001;BMP280;16845;48.670;9.000;2024-02-23T02:30:00;93690.34;;;7.24
30001;BMP280;16845;48.670;9.000;2024-02-23T02:32:27;93690.25;;;7.27
30001;BMP280;16845;48.670;9.000;2024-02-23T02:34:54;93685.25;;;7.27
30001;BMP280;16845;48.670;9.000;2024-02-23T02:37:22;93676.16;;;7.08
30001;BMP280;16845;48.670;9.000;2024-02-23T02:39:48;93669.94;;;6.98
30001;BMP280;16845;48.670;9.000;2024-02-23T02:42:15;93675.00;;;7.15
30001;BMP280;16845;48.670;9.000;2024-02-23T02:44:42;93670.50;;;7.04
30001;BMP280;16845;48.670;9.000;2024-02-23T02:47:08;93666.13;;;7.26
30001;BMP280;16845;48.670;9.000;2024-02-23T02:49:35;93664.50;;;6.90
30001;BMP280;16845;48.670;9.000;2024-02-23T02:52:01;93675.22;;;6.74
30001;BMP280;16845;48.670;9.000;2024-02-23T02:54:29;93675.06;;;6.77
30001;BMP280;16845;48.670;9.000;2024-02-23T02:56:56;93667.88;;;6.89
30001;BMP280;16845;48.670;9.000;2024-02-23T02:59:23;93689.53;;;6.69
30001;BMP280;16845;48.670;9.000;2024-02-23T03:01:53;93680.75;;;6.98
30001;BMP280;16845;48.670;9.000;2024-02-23T03:04:20;93667.38;;;6.99
30001;BMP280;16845;48.670;9.000;2024-02-23T03:06:46;93648.66;;;6.54
30001;BMP280;16845;48.670;9.000;2024-02-23T03:09:13;93665.44;;;6.88
30001;BMP280;16845;48.670;9.000;2024-02-23T03:11:41;93675.56;;;7.03
30001;BMP280;16845;48.670;9.000;2024-02-23T03:14:08;93667.44;;;6.98
30001;BMP280;16845;48.670;9.000;2024-02-23T03:16:34;93659.84;;;7.01
30001;BMP280;16845;48.670;9.000;2024-02-23T03:19:01;93653.50;;;6.94
30001;BMP280;16845;48.670;9.000;2024-02-23T03:21:27;93664.31;;;6.94
30001;BMP280;16845;48.670;9.000;2024-02-23T03:23:54;93667.00;;;6.90
30001;BMP280;16845;48.670;9.000;2024-02-23T03:26:20;93681.41;;;7.02
30001;BMP280;16845;48.670;9.000;2024-02-23T03:28:48;93663.28;;;6.98
30001;BMP280;16845;48.670;9.000;2024-02-23T03:31:15;93662.81;;;6.72
30001;BMP280;16845;48.670;9.000;2024-02-23T03:33:41;93657.41;;;6.99
30001;BMP280;16845;48.670;9.000;2024-02-23T03:36:08;93661.78;;;6.58
30001;BMP280;16845;48.670;9.000;2024-02-23T03:38:35;93672.19;;;6.67
30001;BMP280;16845;48.670;9.000;2024-02-23T03:41:01;93678.25;;;6.62
30001;BMP280;16845;48.670;9.000;2024-02-23T03:43:28;93681.31;;;6.67
30001;BMP280;16845;48.670;9.000;2024-02-23T03:46:00;93675.88;;;6.59
30001;BMP280;16845;48.670;9.000;2024-02-23T03:48:27;93681.66;;;6.59
30001;BMP280;16845;48.670;9.000;2024-02-23T03:50:53;93687.28;;;6.83
30001;BMP280;16845;48.670;9.000;2024-02-23T03:53:20;93695.00;;;6.58
30001;BMP280;16845;48.670;9.000;2024-02-23T03:55:47;93695.94;;;6.56
30001;BMP280;16845;48.670;9.000;2024-02-23T03:58:13;93691.84;;;6.91
30001;BMP280;16845;48.670;9.000;2024-02-23T04:00:40;93688.22;;;6.80
30001;BMP280;16845;48.670;9.000;2024-02-23T04:03:07;93676.84;;;6.93
30001;BMP280;16845;48.670;9.000;2024-02-23T04:05:34;93671.50;;;7.00
30001;BMP280;16845;48.670;9.000;2024-02-23T04:08:01;93678.09;;;6.83
30001;BMP280;16845;48.670;9.000;2024-02-23T04:10:28;93677.50;;;6.96
30001;BMP280;16845;48.670;9.000;2024-02-23T04:12:55;93677.16;;;7.04
30001;BMP280;16845;48.670;9.000;2024-02-23T04:15:22;93673.06;;;6.66
30001;BMP280;16845;48.670;9.000;2024-02-23T04:17:48;93687.41;;;6.80
30001;BMP280;16845;48.670;9.000;2024-02-23T04:20:16;93688.38;;;6.77
30001;BMP280;16845;48.670;9.000;2024-02-23T04:22:44;93669.34;;;6.93
30001;BMP280;16845;48.670;9.000;2024-02-23T04:25:10;93677.50;;;6.96
30001;BMP280;16845;48.670;9.000;2024-02-23T04:27:36;93674.28;;;6.94
30001;BMP280;16845;48.670;9.000;2024-02-23T04:30:04;93677.28;;;6.64
30001;BMP280;16845;48.670;9.000;2024-02-23T04:32:31;93667.53;;;6.78
30001;BMP280;16845;48.670;9.000;2024-02-23T04:34:57;93663.34;;;6.60
30001;BMP280;16845;48.670;9.000;2024-02-23T04:37:25;93670.97;;;6.76
30001;BMP280;16845;48.670;9.000;2024-02-23T04:39:52;93681.69;;;6.78
30001;BMP280;16845;48.670;9.000;2024-02-23T04:42:18;93671.25;;;6.88
30001;BMP280;16845;48.670;9.000;2024-02-23T04:44:45;93669.56;;;6.88
30001;BMP280;16845;48.670;9.000;2024-02-23T04:47:12;93671.56;;;6.81
30001;BMP280;16845;48.670;9.000;2024-02-23T04:49:38;93671.56;;;7.17
30001;BMP280;16845;48.670;9.000;2024-02-23T04:52:05;93666.50;;;7.00
30001;BMP280;16845;48.670;9.000;2024-02-23T04:54:33;93658.34;;;6.79
30001;BMP280;16845;48.670;9.000;2024-02-23T04:57:00;93660.09;;;6.95
30001;BMP280;16845;48.670;9.000;2024-02-23T04:59:26;93648.28;;;6.82
30001;BMP280;16845;48.670;9.000;2024-02-23T05:01:53;93646.34;;;7.05
30001;BMP280;16845;48.670;9.000;2024-02-23T05:04:19;93651.88;;;7.11
30001;BMP280;16845;48.670;9.000;2024-02-23T05:06:46;93641.16;;;7.09
30001;BMP280;16845;48.670;9.000;2024-02-23T05:09:12;93641.44;;;6.48
30001;BMP280;16845;48.670;9.000;2024-02-23T05:11:40;93654.59;;;6.88
30001;BMP280;16845;48.670;9.000;2024-02-23T05:14:07;93650.13;;;6.95
30001;BMP280;16845;48.670;9.000;2024-02-23T05:16:34;93649.75;;;6.86
30001;BMP280;16845;48.670;9.000;2024-02-23T05:19:00;93654.88;;;7.01
30001;BMP280;16845;48.670;9.000;2024-02-23T05:21:27;93649.13;;;6.99
30001;BMP280;16845;48.670;9.000;2024-02-23T05:23:53;93656.81;;;6.94
30001;BMP280;16845;48.670;9.000;2024-02-23T05:26:20;93654.38;;;6.56
30001;BMP280;16845;48.670;9.000;2024-02-23T05:28:48;93667.34;;;6.83
30001;BMP280;16845;48.670;9.000;2024-02-23T05:31:15;93666.72;;;6.78
30001;BMP280;16845;48.670;9.000;2024-02-23T05:33:41;93668.66;;;6.53
30001;BMP280;16845;48.670;9.000;2024-02-23T05:36:08;93672.72;;;6.74
30001;BMP280;16845;48.670;9.000;2024-02-23T05:38:35;93695.47;;;6.28
30001;BMP280;16845;48.670;9.000;2024-02-23T05:41:01;93689.88;;;6.61
30001;BMP280;16845;48.670;9.000;2024-02-23T05:43:28;93691.75;;;5.98
30001;BMP280;16845;48.670;9.000;2024-02-23T05:45:56;93684.72;;;6.46
30001;BMP280;16845;48.670;9.000;2024-02-23T05:48:22;93690.44;;;6.68
30001;BMP280;16845;48.670;9.000;2024-02-23T05:50:49;93697.13;;;6.67
30001;BMP280;16845;48.670;9.000;2024-02-23T05:53:15;93708.75;;;6.67
30001;BMP280;16845;48.670;9.000;2024-02-23T05:55:42;93705.19;;;6.34
30001;BMP280;16845;48.670;9.000;2024-02-23T05:58:09;93698.72;;;6.30
30001;BMP280;16845;48.670;9.000;2024-02-23T06:00:35;93698.84;;;6.07
30001;BMP280;16845;48.670;9.000;2024-02-23T06:03:03;93709.00;;;6.22
30001;BMP280;16845;48.670;9.000;2024-02-23T06:05:30;93702.81;;;6.31
30001;BMP280;16845;48.670;9.000;2024-02-23T06:07:56;93701.25;;;6.28
30001;BMP280;16845;48.670;9.000;2024-02-23T06:10:23;93702.44;;;6.40
30001;BMP280;16845;48.670;9.000;2024-02-23T06:12:50;93719.69;;;6.44
30001;BMP280;16845;48.670;9.000;2024-02-23T06:15:19;93720.41;;;6.48
30001;BMP280;16845;48.670;9.000;2024-02-23T06:17:45;93721.06;;;6.70
30001;BMP280;16845;48.670;9.000;2024-02-23T06:20:13;93720.63;;;6.62
30001;BMP280;16845;48.670;9.000;2024-02-23T06:22:40;93719.56;;;6.67
30001;BMP280;16845;48.670;9.000;2024-02-23T06:25:07;93720.16;;;6.90
30001;BMP280;16845;48.670;9.000;2024-02-23T06:27:34;93724.19;;;6.75
30001;BMP280;16845;48.670;9.000;2024-02-23T06:30:02;93724.09;;;6.58
30001;BMP280;16845;48.670;9.000;2024-02-23T06:32:28;93730.03;;;6.93
30001;BMP280;16845;48.670;9.000;2024-02-23T06:34:55;93727.91;;;6.26
30001;BMP280;16845;48.670;9.000;2024-02-23T06:37:27;93729.41;;;7.07
30001;BMP280;16845;48.670;9.000;2024-02-23T06:39:53;93707.63;;;7.10
30001;BMP280;16845;48.670;9.000;2024-02-23T06:42:20;93712.16;;;7.02
30001;BMP280;16845;48.670;9.000;2024-02-23T06:44:47;93710.13;;;7.10
30001;BMP280;16845;48.670;9.000;2024-02-23T06:47:13;93711.41;;;7.19
30001;BMP280;16845;48.670;9.000;2024-02-23T06:49:41;93714.53;;;7.05
30001;BMP280;16845;48.670;9.000;2024-02-23T06:52:07;93719.34;;;6.72
30001;BMP280;16845;48.670;9.000;2024-02-23T06:54:35;93715.34;;;6.68
30001;BMP280;16845;48.670;9.000;2024-02-23T06:57:02;93707.88;;;6.68
30001;BMP280;16845;48.670;9.000;2024-02-23T06:59:29;93712.13;;;6.84
30001;BMP280;16845;48.670;9.000;2024-02-23T07:01:55;93721.69;;;6.56
30001;BMP280;16845;48.670;9.000;2024-02-23T07:04:22;93724.41;;;6.88
30001;BMP280;16845;48.670;9.000;2024-02-23T07:06:48;93731.91;;;6.88
30001;BMP280;16845;48.670;9.000;2024-02-23T07:09:15;93732.47;;;6.75
30001;BMP280;16845;48.670;9.000;2024-02-23T07:11:43;93725.16;;;6.90
30001;BMP280;16845;48.670;9.000;2024-02-23T07:14:10;93736.19;;;6.85
30001;BMP280;16845;48.670;9.000;2024-02-23T07:16:37;93735.38;;;7.04
30001;BMP280;16845;48.670;9.000;2024-02-23T07:19:04;93736.38;;;6.62
30001;BMP280;16845;48.670;9.000;2024-02-23T07:21:30;93740.19;;;6.89
30001;BMP280;16845;48.670;9.000;2024-02-23T07:23:57;93739.66;;;6.83
30001;BMP280;16845;48.670;9.000;2024-02-23T07:26:23;93733.72;;;7.03
30001;BMP280;16845;48.670;9.000;2024-02-23T07:28:51;93742.59;;;6.90
30001;BMP280;16845;48.670;9.000;2024-02-23T07:31:18;93739.66;;;7.01
30001;BMP280;16845;48.670;9.000;2024-02-23T07:33:44;93740.84;;;6.92
30001;BMP280;16845;48.670;9.000;2024-02-23T07:36:14;93738.03;;;7.37
30001;BMP280;16845;48.670;9.000;2024-02-23T07:38:40;93732.25;;;7.18
30001;BMP280;16845;48.670;9.000;2024-02-23T07:41:07;93723.03;;;7.55
30001;BMP280;16845;48.670;9.000;2024-02-23T07:43:33;93729.94;;;7.13
30001;BMP280;16845;48.670;9.000;2024-02-23T07:46:02;93722.75;;;6.89
30001;BMP280;16845;48.670;9.000;2024-02-23T07:48:28;93723.00;;;7.01
30001;BMP280;16845;48.670;9.000;2024-02-23T07:50:55;93728.28;;;6.57
30001;BMP280;16845;48.670;9.000;2024-02-23T07:53:21;93726.69;;;6.75
30001;BMP280;16845;48.670;9.000;2024-02-23T07:55:48;93736.97;;;7.05
30001;BMP280;16845;48.670;9.000;2024-02-23T07:58:14;93740.44;;;6.83
30001;BMP280;16845;48.670;9.000;2024-02-23T08:00:41;93744.50;;;6.86
30001;BMP280;16845;48.670;9.000;2024-02-23T08:03:09;93743.44;;;6.91
30001;BMP280;16845;48.670;9.000;2024-02-23T08:05:35;93745.19;;;7.07
30001;BMP280;16845;48.670;9.000;2024-02-23T08:08:02;93748.13;;;6.79
30001;BMP280;16845;48.670;9.000;2024-02-23T08:10:29;93739.53;;;6.86
30001;BMP280;16845;48.670;9.000;2024-02-23T08:12:55;93745.19;;;6.89
30001;BMP280;16845;48.670;9.000;2024-02-23T08:15:22;93750.91;;;6.53
30001;BMP280;16845;48.670;9.000;2024-02-23T08:17:48;93737.53;;;6.74
30001;BMP280;16845;48.670;9.000;2024-02-23T08:20:16;93746.19;;;6.85
30001;BMP280;16845;48.670;9.000;2024-02-23T08:22:43;93731.88;;;6.70
30001;BMP280;16845;48.670;9.000;2024-02-23T08:25:10;93736.63;;;6.76
30001;BMP280;16845;48.670;9.000;2024-02-23T08:27:40;93742.69;;;6.89
30001;BMP280;16845;48.670;9.000;2024-02-23T08:30:08;93747.69;;;6.89
30001;BMP280;16845;48.670;9.000;2024-02-23T08:32:34;93738.31;;;6.94
30001;BMP280;16845;48.670;9.000;2024-02-23T08:35:01;93739.66;;;7.01
30001;BMP280;16845;48.670;9.000;2024-02-23T08:37:29;93748.38;;;7.11
30001;BMP280;16845;48.670;9.000;2024-02-23T08:39:56;93751.09;;;6.87
30001;BMP280;16845;48.670;9.000;2024-02-23T08:42:22;93751.25;;;7.02
30001;BMP280;16845;48.670;9.000;2024-02-23T08:44:49;93744.97;;;7.49
30001;BMP280;16845;48.670;9.000;2024-02-23T08:47:15;93738.50;;;7.26
30001;BMP280;16845;48.670;9.000;2024-02-23T08:49:42;93741.44;;;7.17
30001;BMP280;16845;48.670;9.000;2024-02-23T08:52:08;93741.16;;;7.23
30001;BMP280;16845;48.670;9.000;2024-02-23T08:54:36;93728.66;;;6.87
30001;BMP280;16845;48.670;9.000;2024-02-23T08:57:03;93742.91;;;7.21
30001;BMP280;16845;48.670;9.000;2024-02-23T08:59:30;93748.41;;;6.91
30001;BMP280;16845;48.670;9.000;2024-02-23T09:01:56;93736.03;;;6.70
30001;BMP280;16845;48.670;9.000;2024-02-23T09:04:23;93742.38;;;6.96
30001;BMP280;16845;48.670;9.000;2024-02-23T09:06:49;93744.66;;;6.83
30001;BMP280;16845;48.670;9.000;2024-02-23T09:09:16;93751.59;;;6.94
30001;BMP280;16845;48.670;9.000;2024-02-23T09:11:44;93750.16;;;6.51
30001;BMP280;16845;48.670;9.000;2024-02-23T09:14:10;93744.16;;;6.55
30001;BMP280;16845;48.670;9.000;2024-02-23T09:16:37;93738.44;;;6.33
30001;BMP280;16845;48.670;9.000;2024-02-23T09:19:04;93739.50;;;6.47
30001;BMP280;16845;48.670;9.000;2024-02-23T09:21:30;93736.91;;;6.69
30001;BMP280;16845;48.670;9.000;2024-02-23T09:23:57;93744.38;;;7.25
30001;BMP280;16845;48.670;9.000;2024-02-23T09:26:23;93746.53;;;7.51
30001;BMP280;16845;48.670;9.000;2024-02-23T09:28:51;93742.66;;;7.63
30001;BMP280;16845;48.670;9.000;2024-02-23T09:31:18;93735.03;;;8.01
30001;BMP280;16845;48.670;9.000;2024-02-23T09:33:44;93740.13;;;8.34
30001;BMP280;16845;48.670;9.000;2024-02-23T09:36:11;93740.72;;;8.22
30001;BMP280;16845;48.670;9.000;2024-02-23T09:38:37;93741.13;;;8.96
30001;BMP280;16845;48.670;9.000;2024-02-23T09:41:04;93745.94;;;8.34
30001;BMP280;16845;48.670;9.000;2024-02-23T09:43:32;93742.97;;;8.77
30001;BMP280;16845;48.670;9.000;2024-02-23T09:46:00;93740.78;;;9.04
30001;BMP280;16845;48.670;9.000;2024-02-23T09:48:27;93747.47;;;9.03
30001;BMP280;16845;48.670;9.000;2024-02-23T09:50:55;93751.19;;;9.27
30001;BMP280;16845;48.670;9.000;2024-02-23T09:53:22;93757.69;;;9.31
30001;BMP280;16845;48.670;9.000;2024-02-23T09:55:50;93753.91;;;8.92
30001;BMP280;16845;48.670;9.000;2024-02-23T09:58:16;93744.81;;;9.22
30001;BMP280;16845;48.670;9.000;2024-02-23T10:00:44;93740.88;;;9.33
30001;BMP280;16845;48.670;9.000;2024-02-23T10:03:12;93741.28;;;10.03
30001;BMP280;16845;48.670;9.000;2024-02-23T10:05:38;93744.03;;;9.67
30001;BMP280;16845;48.670;9.000;2024-02-23T10:08:08;93736.28;;;10.03
30001;BMP280;16845;48.670;9.000;2024-02-23T10:10:35;93740.41;;;10.47
30001;BMP280;16845;48.670;9.000;2024-02-23T10:13:05;93751.78;;;11.24
30001;BMP280;16845;48.670;9.000;2024-02-23T10:15:31;93751.25;;;11.33
30001;BMP280;16845;48.670;9.000;2024-02-23T10:17:58;93749.00;;;11.71
30001;BMP280;16845;48.670;9.000;2024-02-23T10:20:26;93741.38;;;11.98
30001;BMP280;16845;48.670;9.000;2024-02-23T10:22:53;93750.28;;;12.55
30001;BMP280;16845;48.670;9.000;2024-02-23T10:25:20;93746.13;;;13.31
30001;BMP280;16845;48.670;9.000;2024-02-23T10:27:46;93740.94;;;12.82
30001;BMP280;16845;48.670;9.000;2024-02-23T10:30:13;93741.16;;;12.67
30001;BMP280;16845;48.670;9.000;2024-02-23T10:32:41;93740.13;;;11.65
30001;BMP280;16845;48.670;9.000;2024-02-23T10:35:10;93737.94;;;10.61
30001;BMP280;16845;48.670;9.000;2024-02-23T10:37:38;93739.34;;;11.09
30001;BMP280;16845;48.670;9.000;2024-02-23T10:40:06;93740.22;;;11.08
30001;BMP280;16845;48.670;9.000;2024-02-23T10:42:35;93743.75;;;10.48
30001;BMP280;16845;48.670;9.000;2024-02-23T10:45:03;93739.22;;;11.38
30001;BMP280;16845;48.670;9.000;2024-02-23T10:47:30;93737.78;;;11.48
30001;BMP280;16845;48.670;9.000;2024-02-23T10:50:00;93728.50;;;11.76
30001;BMP280;16845;48.670;9.000;2024-02-23T10:52:31;93734.84;;;11.28
30001;BMP280;16845;48.670;9.000;2024-02-23T10:55:00;93738.06;;;11.98
30001;BMP280;16845;48.670;9.000;2024-02-23T10:57:27;93730.53;;;11.84
30001;BMP280;16845;48.670;9.000;2024-02-23T10:59:54;93735.72;;;10.71
30001;BMP280;16845;48.670;9.000;2024-02-23T11:02:20;93731.41;;;10.59
30001;BMP280;16845;48.670;9.000;2024-02-23T11:04:50;93733.22;;;10.99
30001;BMP280;16845;48.670;9.000;2024-02-23T11:07:19;93736.50;;;10.14
30001;BMP280;16845;48.670;9.000;2024-02-23T11:09:48;93728.50;;;10.37
30001;BMP280;16845;48.670;9.000;2024-02-23T11:12:23;93722.47;;;10.83
30001;BMP280;16845;48.670;9.000;2024-02-23T11:14:50;93723.56;;;10.79
30001;BMP280;16845;48.670;9.000;2024-02-23T11:17:17;93724.75;;;9.99
30001;BMP280;16845;48.670;9.000;2024-02-23T11:19:46;93730.09;;;9.93
30001;BMP280;16845;48.670;9.000;2024-02-23T11:22:15;93723.44;;;9.78
30001;BMP280;16845;48.670;9.000;2024-02-23T11:24:51;93719.97;;;9.34
30001;BMP280;16845;48.670;9.000;2024-02-23T11:27:24;93720.34;;;9.73
30001;BMP280;16845;48.670;9.000;2024-02-23T11:29:59;93712.97;;;10.01
30001;BMP280;16845;48.670;9.000;2024-02-23T11:32:36;93710.25;;;9.74
30001;BMP280;16845;48.670;9.000;2024-02-23T11:35:03;93718.50;;;9.61
30001;BMP280;16845;48.670;9.000;2024-02-23T11:37:30;93707.25;;;9.83
30001;BMP280;16845;48.670;9.000;2024-02-23T11:39:57;93716.88;;;9.60
30001;BMP280;16845;48.670;9.000;2024-02-23T11:42:26;93722.53;;;9.63
30001;BMP280;16845;48.670;9.000;2024-02-23T11:44:53;93718.25;;;9.65
30001;BMP280;16845;48.670;9.000;2024-02-23T11:47:20;93720.13;;;9.62
30001;BMP280;16845;48.670;9.000;2024-02-23T11:49:46;93717.13;;;9.71
30001;BMP280;16845;48.670;9.000;2024-02-23T11:52:13;93713.94;;;9.98
30001;BMP280;16845;48.670;9.000;2024-02-23T11:54:40;93710.97;;;9.76
30001;BMP280;16845;48.670;9.000;2024-02-23T11:57:07;93707.66;;;9.76
30001;BMP280;16845;48.670;9.000;2024-02-23T11:59:34;93712.69;;;10.21
30001;BMP280;16845;48.670;9.000;2024-02-23T12:02:01;93712.22;;;10.14
30001;BMP280;16845;48.670;9.000;2024-02-23T12:04:31;93699.81;;;9.82
30001;BMP280;16845;48.670;9.000;2024-02-23T12:06:57;93703.53;;;10.20
30001;BMP280;16845;48.670;9.000;2024-02-23T12:09:24;93692.31;;;10.55
30001;BMP280;16845;48.670;9.000;2024-02-23T12:11:51;93706.78;;;10.22
30001;BMP280;16845;48.670;9.000;2024-02-23T12:14:18;93691.91;;;9.74
30001;BMP280;16845;48.670;9.000;2024-02-23T12:16:46;93691.44;;;10.12
30001;BMP280;16845;48.670;9.000;2024-02-23T12:19:12;93685.41;;;10.01
30001;BMP280;16845;48.670;9.000;2024-02-23T12:21:39;93682.38;;;10.10
30001;BMP280;16845;48.670;9.000;2024-02-23T12:24:06;93682.06;;;9.55
30001;BMP280;16845;48.670;9.000;2024-02-23T12:26:33;93683.13;;;9.67
30001;BMP280;16845;48.670;9.000;2024-02-23T12:29:00;93679.84;;;9.80
30001;BMP280;16845;48.670;9.000;2024-02-23T12:31:27;93697.03;;;9.57
30001;BMP280;16845;48.670;9.000;2024-02-23T12:33:56;93693.88;;;9.38
30001;BMP280;16845;48.670;9.000;2024-02-23T12:36:23;93697.09;;;9.71
30001;BMP280;16845;48.670;9.000;2024-02-23T12:38:50;93687.34;;;9.80
30001;BMP280;16845;48.670;9.000;2024-02-23T12:41:17;93684.59;;;9.85
30001;BMP280;16845;48.670;9.000;2024-02-23T12:43:43;93687.31;;;10.11
30001;BMP280;16845;48.670;9.000;2024-02-23T12:46:14;93690.00;;;9.93
30001;BMP280;16845;48.670;9.000;2024-02-23T12:48:40;93688.59;;;10.18
30001;BMP280;16845;48.670;9.000;2024-02-23T12:51:08;93689.31;;;10.20
30001;BMP280;16845;48.670;9.000;2024-02-23T12:53:35;93694.34;;;9.44
30001;BMP280;16845;48.670;9.000;2024-02-23T12:56:03;93692.84;;;10.02
30001;BMP280;16845;48.670;9.000;2024-02-23T12:58:31;93681.78;;;10.92
30001;BMP280;16845;48.670;9.000;2024-02-23T13:00:57;93678.63;;;11.16
30001;BMP280;16845;48.670;9.000;2024-02-23T13:03:25;93684.13;;;10.81
30001;BMP280;16845;48.670;9.000;2024-02-23T13:05:52;93685.91;;;10.93
30001;BMP280;16845;48.670;9.000;2024-02-23T13:08:20;93682.31;;;10.83
30001;BMP280;16845;48.670;9.000;2024-02-23T13:10:47;93682.44;;;10.24
30001;BMP280;16845;48.670;9.000;2024-02-23T13:13:13;93675.28;;;10.32
30001;BMP280;16845;48.670;9.000;2024-02-23T13:15:40;93683.84;;;10.14
30001;BMP280;16845;48.670;9.000;2024-02-23T13:18:07;93684.84;;;9.80
30001;BMP280;16845;48.670;9.000;2024-02-23T13:20:33;93688.19;;;9.81
30001;BMP280;16845;48.670;9.000;2024-02-23T13:23:00;93686.41;;;9.67
30001;BMP280;16845;48.670;9.000;2024-02-23T13:25:28;93694.63;;;9.85
30001;BMP280;16845;48.670;9.000;2024-02-23T13:27:55;93688.94;;;10.12
30001;BMP280;16845;48.670;9.000;2024-02-23T13:30:21;93675.84;;;10.51
30001;BMP280;16845;48.670;9.000;2024-02-23T13:32:48;93684.75;;;10.13
30001;BMP280;16845;48.670;9.000;2024-02-23T13:35:15;93673.72;;;10.87
30001;BMP280;16845;48.670;9.000;2024-02-23T13:37:42;93671.00;;;10.48
30001;BMP280;16845;48.670;9.000;2024-02-23T13:40:09;93660.97;;;10.76
30001;BMP280;16845;48.670;9.000;2024-02-23T13:42:37;93657.03;;;11.00
30001;BMP280;16845;48.670;9.000;2024-02-23T13:45:05;93661.44;;;10.54
30001;BMP280;16845;48.670;9.000;2024-02-23T13:47:31;93648.94;;;11.09
30001;BMP280;16845;48.670;9.000;2024-02-23T13:49:58;93649.13;;;10.22
30001;BMP280;16845;48.670;9.000;2024-02-23T13:52:25;93649.66;;;10.27
30001;BMP280;16845;48.670;9.000;2024-02-23T13:54:51;93647.16;;;10.27
30001;BMP280;16845;48.670;9.000;2024-02-23T13:57:18;93639.13;;;10.64
30001;BMP280;16845;48.670;9.000;2024-02-23T13:59:46;93634.72;;;10.81
30001;BMP280;16845;48.670;9.000;2024-02-23T14:02:13;93634.94;;;10.50
30001;BMP280;16845;48.670;9.000;2024-02-23T14:04:39;93619.13;;;12.60
30001;BMP280;16845;48.670;9.000;2024-02-23T14:07:06;93610.44;;;13.01
30001;BMP280;16845;48.670;9.000;2024-02-23T14:09:33;93613.97;;;14.39
30001;BMP280;16845;48.670;9.000;2024-02-23T14:11:59;93603.44;;;15.33
30001;BMP280;16845;48.670;9.000;2024-02-23T14:14:26;93591.31;;;14.94
30001;BMP280;16845;48.670;9.000;2024-02-23T14:16:54;93597.91;;;16.74